In Rescue
 
Open Full Screen Window  High Contrast Mode
Wind Gusting 27 knots
21
October 25, 2021 2:30 PM CDT
Weather Information
Wind Direction
  060 °
Wind Speed
  21 kt (24 mph)
Wind Gust
  27 kt (31 mph)
Altimeter
30.19 in
Visibility
10 SM
Temperature
08° C
46° F
Dewpoint
05° C
41° F
Humidity
82%
1hr Rain Fall
00.00 in.
24hr Rain Fall
00.03 in.
Sky Condition
Overcast @ 3,300 ft
Broken @ 2,200 ft
Few @ 1,700 ft
MVFR

METAR KDYT 251930Z AUTO 06021G27KT 10SM FEW017 BKN022 OVC033 08/05 A3019 RMK AO2

FAA Disclaimer: The data displayed is for advisory purposes only and is not to be used for flight planning or operations.